Tarcoola, Australia
Current Conditions -  °F | °C
As of 9:18 AM on Saturday 25 Oct 2014 (Local Time) from YCDU Reporting Station
Scattered Clouds Scattered Clouds  
Wind Chill: 66°   Ceiling: Unl
Heat Index: 66°   Visibility: 6mi
Dew Point: 55°   Wind: 5mph
Humidity: 68%   Direction: 100°E
Pressure: 30.06"   Gusts: NA
Location:  30.71°S, 134.57°E
Report Text: YCDU 242318Z AUTO 10004KT 9999 // SCT011 19/13 Q1018
Loading
Personal Weather Stations






























Interactive Weather Map
Tropical Storm Tracking
New forecast layout! Learn more

10-Day Weather Forecast

Advertisements
Track Severe Weather on mobile